Accueil
METAR-TAF:

METAR-TAF

Aéroports :

Portorož, Slovénie

latitude: 45-31N, longitude: 013-34E, altitude: 95 m

Observation

Le bulletin a été fait il y a 16 minutes, à 00:30 UTC
Vent 6 kt de est/sud-est
Température 20°C
Humidité 73%
Pression 1013 hPa
Visibilité 10 km ou plus

METAR: LJPZ 040030Z AUTO 11006KT 9999 NCD 20/15 Q1013

Heure: 02:46 (00:46 UTC)

Prévision

Le bulletin a été fait il y a 1 heure et 46 minutes, à 23:00 UTC
Prévision valable du 04 à 00 UTC au 04 à 09 UTC
Vent 5 kt de sud
Visibilité 10 km ou plus
Quelques nuages à une hauteur de 5000 ft

TAF: LJPZ 032300Z 0400/0409 17005KT 9999 FEW050

Observations et prévisions météorologiques de plus de 4000 aéroports (messages METAR et TAF).

Les stations disponibles sont représentées par des disques jaunes et rouges sur la carte.

Passer la souris dessus pour voir le nom de la station.

Cliquer dessus pour voir les observations et prévisions météorologiques.

Pour changer de carte: cliquez sur les boutons verts avec une croix noire pour zoomer, sur le bouton vert avec un tiret pour effectuer un zoom arrière, ou sur les flèches vertes pour les cartes adjacentes.


METAR-TAF: